ADDS TAF Data INFO
IDs: Format: Raw Decoded Include METARs

Data at: 1713 UTC 23 Jul 2018

KROW 231651Z 02010KT 10SM CLR 33/15 A3018 RMK AO2 SLP141 T03330150

KROW 231136Z 2312/2412 02010G18KT P6SM SKC
  FM231800 08008KT P6SM FEW100
  FM240700 01010G18KT P6SM SCT090